sensor_id;sensor_type;location;lat;lon;timestamp;pressure;altitude;pressure_sealevel;temperature;humidity
36380;BME280;22411;53.016;18.632;2022-12-29T00:01:57;100185.00;;;5.48;100.00
36380;BME280;22411;53.016;18.632;2022-12-29T00:04:25;100180.88;;;5.45;100.00
36380;BME280;22411;53.016;18.632;2022-12-29T00:06:52;100171.66;;;5.41;100.00
36380;BME280;22411;53.016;18.632;2022-12-29T00:09:19;100163.84;;;5.43;100.00
36380;BME280;22411;53.016;18.632;2022-12-29T00:11:45;100174.06;;;5.44;100.00
36380;BME280;22411;53.016;18.632;2022-12-29T00:14:13;100169.16;;;5.40;100.00
36380;BME280;22411;53.016;18.632;2022-12-29T00:16:57;100163.84;;;5.43;100.00
36380;BME280;22411;53.016;18.632;2022-12-29T00:19:24;100158.06;;;5.39;100.00
36380;BME280;22411;53.016;18.632;2022-12-29T00:22:10;100152.47;;;5.31;100.00
36380;BME280;22411;53.016;18.632;2022-12-29T00:24:55;100147.34;;;5.31;100.00
36380;BME280;22411;53.016;18.632;2022-12-29T00:27:28;100145.69;;;5.30;100.00
36380;BME280;22411;53.016;18.632;2022-12-29T00:30:19;100144.13;;;5.28;100.00
36380;BME280;22411;53.016;18.632;2022-12-29T00:33:11;100134.72;;;5.27;100.00
36380;BME280;22411;53.016;18.632;2022-12-29T00:36:03;100131.41;;;5.24;100.00
36380;BME280;22411;53.016;18.632;2022-12-29T00:38:32;100135.63;;;5.25;100.00
36380;BME280;22411;53.016;18.632;2022-12-29T00:41:18;100127.94;;;5.25;100.00
36380;BME280;22411;53.016;18.632;2022-12-29T00:44:03;100128.75;;;5.26;100.00
36380;BME280;22411;53.016;18.632;2022-12-29T00:46:39;100122.78;;;5.25;100.00
36380;BME280;22411;53.016;18.632;2022-12-29T00:49:06;100119.47;;;5.23;100.00
36380;BME280;22411;53.016;18.632;2022-12-29T00:51:52;100115.00;;;5.27;100.00
36380;BME280;22411;53.016;18.632;2022-12-29T00:54:19;100120.13;;;5.27;100.00
36380;BME280;22411;53.016;18.632;2022-12-29T00:56:50;100126.88;;;5.30;100.00
36380;BME280;22411;53.016;18.632;2022-12-29T00:59:16;100123.47;;;5.29;100.00
36380;BME280;22411;53.016;18.632;2022-12-29T01:01:43;100127.59;;;5.32;100.00
36380;BME280;22411;53.016;18.632;2022-12-29T01:04:09;100131.19;;;5.29;100.00
36380;BME280;22411;53.016;18.632;2022-12-29T01:06:37;100124.44;;;5.27;100.00
36380;BME280;22411;53.016;18.632;2022-12-29T01:09:05;100127.84;;;5.27;100.00
36380;BME280;22411;53.016;18.632;2022-12-29T01:11:50;100123.69;;;5.24;100.00
36380;BME280;22411;53.016;18.632;2022-12-29T01:14:16;100122.06;;;5.23;100.00
36380;BME280;22411;53.016;18.632;2022-12-29T01:16:42;100122.78;;;5.25;100.00
36380;BME280;22411;53.016;18.632;2022-12-29T01:19:08;100115.41;;;5.19;100.00
36380;BME280;22411;53.016;18.632;2022-12-29T01:21:34;100113.66;;;5.20;100.00
36380;BME280;22411;53.016;18.632;2022-12-29T01:24:00;100104.22;;;5.20;100.00
36380;BME280;22411;53.016;18.632;2022-12-29T01:26:26;100101.88;;;5.16;100.00
36380;BME280;22411;53.016;18.632;2022-12-29T01:28:52;100109.59;;;5.16;100.00
36380;BME280;22411;53.016;18.632;2022-12-29T01:31:18;100100.00;;;5.19;100.00
36380;BME280;22411;53.016;18.632;2022-12-29T01:33:44;100104.31;;;5.19;100.00
36380;BME280;22411;53.016;18.632;2022-12-29T01:36:13;100111.28;;;5.17;100.00
36380;BME280;22411;53.016;18.632;2022-12-29T01:38:39;100106.97;;;5.17;100.00
36380;BME280;22411;53.016;18.632;2022-12-29T01:41:07;100115.50;;;5.18;100.00
36380;BME280;22411;53.016;18.632;2022-12-29T01:43:54;100112.09;;;5.17;100.00
36380;BME280;22411;53.016;18.632;2022-12-29T01:48:58;100112.91;;;5.18;100.00
36380;BME280;22411;53.016;18.632;2022-12-29T01:51:26;100118.88;;;5.18;100.00
36380;BME280;22411;53.016;18.632;2022-12-29T01:53:55;100117.16;;;5.19;100.00
36380;BME280;22411;53.016;18.632;2022-12-29T01:56:22;100110.41;;;5.16;100.00
36380;BME280;22411;53.016;18.632;2022-12-29T01:58:52;100091.59;;;5.16;100.00
36380;BME280;22411;53.016;18.632;2022-12-29T02:01:21;100093.28;;;5.17;100.00
36380;BME280;22411;53.016;18.632;2022-12-29T02:03:48;100096.81;;;5.14;100.00
36380;BME280;22411;53.016;18.632;2022-12-29T02:06:26;100096.97;;;5.11;100.00
36380;BME280;22411;53.016;18.632;2022-12-29T02:08:55;100094.41;;;5.11;100.00
36380;BME280;22411;53.016;18.632;2022-12-29T02:11:23;100084.91;;;5.13;100.00
36380;BME280;22411;53.016;18.632;2022-12-29T02:13:50;100076.28;;;5.14;100.00
36380;BME280;22411;53.016;18.632;2022-12-29T02:19:34;100087.81;;;5.23;100.00
36380;BME280;22411;53.016;18.632;2022-12-29T02:39:12;100038.34;;;5.35;100.00
36380;BME280;22411;53.016;18.632;2022-12-29T02:42:06;100028.78;;;5.37;100.00
36380;BME280;22411;53.016;18.632;2022-12-29T02:44:36;100032.13;;;5.39;100.00
36380;BME280;22411;53.016;18.632;2022-12-29T02:47:36;100020.59;;;5.46;100.00
36380;BME280;22411;53.016;18.632;2022-12-29T02:52:47;100021.41;;;5.47;100.00
36380;BME280;22411;53.016;18.632;2022-12-29T02:55:15;100007.72;;;5.46;100.00
36380;BME280;22411;53.016;18.632;2022-12-29T02:57:40;100006.91;;;5.46;100.00
36380;BME280;22411;53.016;18.632;2022-12-29T03:00:11;100007.63;;;5.48;100.00
36380;BME280;22411;53.016;18.632;2022-12-29T03:05:56;100001.41;;;5.52;100.00
36380;BME280;22411;53.016;18.632;2022-12-29T03:08:28;99988.56;;;5.52;100.00
36380;BME280;22411;53.016;18.632;2022-12-29T03:11:06;99992.97;;;5.50;100.00
36380;BME280;22411;53.016;18.632;2022-12-29T03:14:07;100006.75;;;5.49;100.00
36380;BME280;22411;53.016;18.632;2022-12-29T03:16:59;99996.13;;;5.55;100.00
36380;BME280;22411;53.016;18.632;2022-12-29T03:19:35;99994.38;;;5.56;100.00
36380;BME280;22411;53.016;18.632;2022-12-29T03:22:08;99995.94;;;5.58;100.00
36380;BME280;22411;53.016;18.632;2022-12-29T03:27:55;99994.03;;;5.62;100.00
36380;BME280;22411;53.016;18.632;2022-12-29T03:30:23;100010.13;;;5.65;100.00
36380;BME280;22411;53.016;18.632;2022-12-29T03:32:54;100009.34;;;5.63;100.00
36380;BME280;22411;53.016;18.632;2022-12-29T03:35:24;100009.28;;;5.65;100.00
36380;BME280;22411;53.016;18.632;2022-12-29T03:38:06;100010.03;;;5.67;100.00
36380;BME280;22411;53.016;18.632;2022-12-29T03:40:34;100012.69;;;5.65;100.00
36380;BME280;22411;53.016;18.632;2022-12-29T03:43:02;100004.97;;;5.65;100.00
36380;BME280;22411;53.016;18.632;2022-12-29T03:45:29;100003.13;;;5.67;100.00
36380;BME280;22411;53.016;18.632;2022-12-29T03:47:56;99997.91;;;5.69;100.00
36380;BME280;22411;53.016;18.632;2022-12-29T03:50:21;100003.88;;;5.69;100.00
36380;BME280;22411;53.016;18.632;2022-12-29T03:52:47;99993.34;;;5.74;100.00
36380;BME280;22411;53.016;18.632;2022-12-29T03:55:13;99984.31;;;5.67;100.00
36380;BME280;22411;53.016;18.632;2022-12-29T03:57:40;99984.22;;;5.68;100.00
36380;BME280;22411;53.016;18.632;2022-12-29T04:00:06;99988.72;;;5.65;100.00
36380;BME280;22411;53.016;18.632;2022-12-29T04:02:32;99990.78;;;5.58;100.00
36380;BME280;22411;53.016;18.632;2022-12-29T04:04:58;99986.56;;;5.57;100.00
36380;BME280;22411;53.016;18.632;2022-12-29T04:07:24;99972.97;;;5.55;100.00
36380;BME280;22411;53.016;18.632;2022-12-29T04:09:50;99980.94;;;5.50;100.00
36380;BME280;22411;53.016;18.632;2022-12-29T04:12:19;99976.88;;;5.46;100.00
36380;BME280;22411;53.016;18.632;2022-12-29T04:14:45;99965.78;;;5.46;100.00
36380;BME280;22411;53.016;18.632;2022-12-29T04:17:12;99976.22;;;5.43;100.00
36380;BME280;22411;53.016;18.632;2022-12-29T04:19:39;99964.28;;;5.42;100.00
36380;BME280;22411;53.016;18.632;2022-12-29T04:22:05;99965.53;;;5.35;100.00
36380;BME280;22411;53.016;18.632;2022-12-29T04:24:31;99970.09;;;5.30;100.00
36380;BME280;22411;53.016;18.632;2022-12-29T04:26:57;99970.09;;;5.30;100.00
36380;BME280;22411;53.016;18.632;2022-12-29T04:29:23;99957.16;;;5.31;100.00
36380;BME280;22411;53.016;18.632;2022-12-29T04:31:49;99969.09;;;5.32;100.00
36380;BME280;22411;53.016;18.632;2022-12-29T04:34:15;99969.84;;;5.34;100.00
36380;BME280;22411;53.016;18.632;2022-12-29T04:36:41;99957.16;;;5.31;100.00
36380;BME280;22411;53.016;18.632;2022-12-29T04:39:07;99946.81;;;5.33;100.00
36380;BME280;22411;53.016;18.632;2022-12-29T04:41:33;99952.84;;;5.32;100.00
36380;BME280;22411;53.016;18.632;2022-12-29T04:43:59;99954.78;;;5.28;100.00
36380;BME280;22411;53.016;18.632;2022-12-29T04:46:25;99960.06;;;5.25;100.00
36380;BME280;22411;53.016;18.632;2022-12-29T04:48:51;99951.38;;;5.28;100.00
36380;BME280;22411;53.016;18.632;2022-12-29T04:51:17;99948.06;;;5.25;100.00
36380;BME280;22411;53.016;18.632;2022-12-29T04:53:43;99948.81;;;5.28;100.00
36380;BME280;22411;53.016;18.632;2022-12-29T04:56:09;99940.19;;;5.29;100.00
36380;BME280;22411;53.016;18.632;2022-12-29T04:58:35;99939.13;;;5.33;100.00
36380;BME280;22411;53.016;18.632;2022-12-29T05:01:02;99937.63;;;5.29;100.00
36380;BME280;22411;53.016;18.632;2022-12-29T05:03:28;99941.03;;;5.29;100.00
36380;BME280;22411;53.016;18.632;2022-12-29T05:05:55;99944.31;;;5.31;100.00
36380;BME280;22411;53.016;18.632;2022-12-29T05:08:21;99945.00;;;5.35;100.00
36380;BME280;22411;53.016;18.632;2022-12-29T05:10:47;99945.09;;;5.33;100.00
36380;BME280;22411;53.016;18.632;2022-12-29T05:13:15;99939.75;;;5.36;100.00
36380;BME280;22411;53.016;18.632;2022-12-29T05:15:47;99940.50;;;5.38;100.00
36380;BME280;22411;53.016;18.632;2022-12-29T05:18:17;99936.09;;;5.40;100.00
36380;BME280;22411;53.016;18.632;2022-12-29T05:20:44;99924.81;;;5.43;100.00
36380;BME280;22411;53.016;18.632;2022-12-29T05:23:10;99934.09;;;5.45;100.00
36380;BME280;22411;53.016;18.632;2022-12-29T05:25:36;99935.66;;;5.48;100.00
36380;BME280;22411;53.016;18.632;2022-12-29T05:28:02;99932.19;;;5.49;100.00
36380;BME280;22411;53.016;18.632;2022-12-29T05:30:29;99935.41;;;5.53;100.00
36380;BME280;22411;53.016;18.632;2022-12-29T05:32:54;99932.78;;;5.54;100.00
36380;BME280;22411;53.016;18.632;2022-12-29T05:35:21;99941.31;;;5.55;100.00
36380;BME280;22411;53.016;18.632;2022-12-29T05:37:46;99924.97;;;5.56;100.00
36380;BME280;22411;53.016;18.632;2022-12-29T05:40:12;99929.75;;;5.62;100.00
36380;BME280;22411;53.016;18.632;2022-12-29T05:42:38;99926.34;;;5.61;100.00
36380;BME280;22411;53.016;18.632;2022-12-29T05:45:05;99910.94;;;5.61;100.00
36380;BME280;22411;53.016;18.632;2022-12-29T05:47:33;99894.41;;;5.65;100.00
36380;BME280;22411;53.016;18.632;2022-12-29T05:50:02;99910.41;;;5.70;100.00
36380;BME280;22411;53.016;18.632;2022-12-29T05:52:40;99900.56;;;5.63;100.00
36380;BME280;22411;53.016;18.632;2022-12-29T05:55:06;99902.13;;;5.65;100.00
36380;BME280;22411;53.016;18.632;2022-12-29T05:57:32;99895.97;;;5.68;100.00
36380;BME280;22411;53.016;18.632;2022-12-29T05:59:58;99894.88;;;5.72;100.00
36380;BME280;22411;53.016;18.632;2022-12-29T06:02:24;99888.91;;;5.71;100.00
36380;BME280;22411;53.016;18.632;2022-12-29T06:04:50;99886.25;;;5.73;100.00
36380;BME280;22411;53.016;18.632;2022-12-29T06:07:16;99882.94;;;5.71;100.00
36380;BME280;22411;53.016;18.632;2022-12-29T06:09:42;99886.25;;;5.73;100.00
36380;BME280;22411;53.016;18.632;2022-12-29T06:12:08;99880.94;;;5.76;100.00
36380;BME280;22411;53.016;18.632;2022-12-29T06:14:34;99880.13;;;5.75;100.00
36380;BME280;22411;53.016;18.632;2022-12-29T06:17:00;99889.03;;;5.84;100.00
36380;BME280;22411;53.016;18.632;2022-12-29T06:19:26;99883.06;;;5.84;100.00
36380;BME280;22411;53.016;18.632;2022-12-29T06:21:52;99883.88;;;5.84;100.00
36380;BME280;22411;53.016;18.632;2022-12-29T06:24:19;99882.97;;;5.85;100.00
36380;BME280;22411;53.016;18.632;2022-12-29T06:26:45;99892.25;;;5.88;100.00
36380;BME280;22411;53.016;18.632;2022-12-29T06:29:11;99881.63;;;5.94;100.00
36380;BME280;22411;53.016;18.632;2022-12-29T06:31:38;99878.22;;;5.93;100.00
36380;BME280;22411;53.016;18.632;2022-12-29T06:34:04;99901.38;;;5.93;100.00
36380;BME280;22411;53.016;18.632;2022-12-29T06:36:30;99902.31;;;5.92;100.00
36380;BME280;22411;53.016;18.632;2022-12-29T06:38:56;99903.03;;;5.94;100.00
36380;BME280;22411;53.016;18.632;2022-12-29T06:41:22;99901.47;;;5.92;100.00
36380;BME280;22411;53.016;18.632;2022-12-29T06:43:48;99895.50;;;5.91;100.00
36380;BME280;22411;53.016;18.632;2022-12-29T06:46:14;99892.03;;;5.92;100.00
36380;BME280;22411;53.016;18.632;2022-12-29T06:48:40;99884.63;;;5.86;100.00
36380;BME280;22411;53.016;18.632;2022-12-29T06:51:08;99887.00;;;5.89;100.00
36380;BME280;22411;53.016;18.632;2022-12-29T06:53:34;99888.84;;;5.87;100.00
36380;BME280;22411;53.016;18.632;2022-12-29T06:56:00;99872.38;;;5.91;100.00
36380;BME280;22411;53.016;18.632;2022-12-29T06:58:26;99886.19;;;5.89;100.00
36380;BME280;22411;53.016;18.632;2022-12-29T07:00:52;99896.38;;;5.90;100.00
36380;BME280;22411;53.016;18.632;2022-12-29T07:03:18;99896.66;;;5.86;100.00
36380;BME280;22411;53.016;18.632;2022-12-29T07:05:44;99913.91;;;5.84;100.00
36380;BME280;22411;53.016;18.632;2022-12-29T07:08:10;99898.31;;;5.87;100.00
36380;BME280;22411;53.016;18.632;2022-12-29T07:10:36;99910.16;;;5.89;100.00
36380;BME280;22411;53.016;18.632;2022-12-29T07:13:02;99915.91;;;5.94;100.00
36380;BME280;22411;53.016;18.632;2022-12-29T07:15:28;99918.41;;;5.96;100.00
36380;BME280;22411;53.016;18.632;2022-12-29T07:17:54;99924.38;;;5.96;100.00
36380;BME280;22411;53.016;18.632;2022-12-29T07:20:20;99915.91;;;5.94;100.00
36380;BME280;22411;53.016;18.632;2022-12-29T07:22:46;99901.22;;;5.96;100.00
36380;BME280;22411;53.016;18.632;2022-12-29T07:25:13;99895.97;;;5.98;100.00
36380;BME280;22411;53.016;18.632;2022-12-29T07:27:39;99905.25;;;6.00;100.00
36380;BME280;22411;53.016;18.632;2022-12-29T07:30:05;99912.41;;;6.10;100.00
36380;BME280;22411;53.016;18.632;2022-12-29T07:32:33;99908.03;;;6.12;100.00
36380;BME280;22411;53.016;18.632;2022-12-29T07:34:59;99920.34;;;6.07;100.00
36380;BME280;22411;53.016;18.632;2022-12-29T07:37:25;99934.28;;;6.17;100.00
36380;BME280;22411;53.016;18.632;2022-12-29T07:39:51;99912.16;;;6.14;100.00
36380;BME280;22411;53.016;18.632;2022-12-29T07:42:17;99919.72;;;6.17;100.00
36380;BME280;22411;53.016;18.632;2022-12-29T07:44:43;99896.44;;;6.19;100.00
36380;BME280;22411;53.016;18.632;2022-12-29T07:47:09;99901.38;;;6.22;100.00
36380;BME280;22411;53.016;18.632;2022-12-29T07:49:35;99918.50;;;6.23;100.00
36380;BME280;22411;53.016;18.632;2022-12-29T07:52:01;99907.19;;;6.25;100.00
36380;BME280;22411;53.016;18.632;2022-12-29T07:54:27;99910.53;;;6.27;100.00
36380;BME280;22411;53.016;18.632;2022-12-29T07:56:53;99907.56;;;6.34;100.00
36380;BME280;22411;53.016;18.632;2022-12-29T07:59:19;99908.13;;;6.39;100.00
36380;BME280;22411;53.016;18.632;2022-12-29T08:01:45;99912.91;;;6.45;100.00
36380;BME280;22411;53.016;18.632;2022-12-29T08:04:11;99907.09;;;6.55;100.00
36380;BME280;22411;53.016;18.632;2022-12-29T08:06:37;99910.13;;;6.62;100.00
36380;BME280;22411;53.016;18.632;2022-12-29T08:09:03;99902.50;;;6.61;100.00
36380;BME280;22411;53.016;18.632;2022-12-29T08:11:29;99906.53;;;6.65;100.00
36380;BME280;22411;53.016;18.632;2022-12-29T08:13:55;99920.31;;;6.64;100.00
36380;BME280;22411;53.016;18.632;2022-12-29T08:16:23;99914.16;;;6.66;100.00
36380;BME280;22411;53.016;18.632;2022-12-29T08:18:49;99901.00;;;6.71;100.00
36380;BME280;22411;53.016;18.632;2022-12-29T08:21:15;99895.47;;;6.77;100.00
36380;BME280;22411;53.016;18.632;2022-12-29T08:23:41;99892.41;;;6.85;100.00
36380;BME280;22411;53.016;18.632;2022-12-29T08:26:07;99886.25;;;6.87;100.00
36380;BME280;22411;53.016;18.632;2022-12-29T08:28:33;99895.53;;;6.90;100.00
36380;BME280;22411;53.016;18.632;2022-12-29T08:31:00;99895.13;;;6.96;100.00
36380;BME280;22411;53.016;18.632;2022-12-29T08:33:27;99891.44;;;7.00;100.00
36380;BME280;22411;53.016;18.632;2022-12-29T08:36:02;99913.41;;;7.05;100.00
36380;BME280;22411;53.016;18.632;2022-12-29T08:38:28;99897.66;;;7.10;100.00
36380;BME280;22411;53.016;18.632;2022-12-29T08:40:56;99897.28;;;7.16;100.00
36380;BME280;22411;53.016;18.632;2022-12-29T08:43:22;99893.69;;;7.19;100.00
36380;BME280;22411;53.016;18.632;2022-12-29T08:45:48;99893.59;;;7.20;100.00
36380;BME280;22411;53.016;18.632;2022-12-29T08:48:14;99904.53;;;7.24;100.00
36380;BME280;22411;53.016;18.632;2022-12-29T08:50:44;99900.91;;;7.26;100.00
36380;BME280;22411;53.016;18.632;2022-12-29T08:53:14;99902.03;;;7.22;100.00
36380;BME280;22411;53.016;18.632;2022-12-29T08:55:57;99903.31;;;7.29;100.00
36380;BME280;22411;53.016;18.632;2022-12-29T08:58:23;99912.16;;;7.25;100.00
36380;BME280;22411;53.016;18.632;2022-12-29T09:00:56;99914.63;;;7.27;100.00
36380;BME280;22411;53.016;18.632;2022-12-29T09:03:23;99921.34;;;7.29;100.00
36380;BME280;22411;53.016;18.632;2022-12-29T09:05:52;99921.06;;;7.34;100.00
36380;BME280;22411;53.016;18.632;2022-12-29T09:08:18;99923.44;;;7.37;100.00
36380;BME280;22411;53.016;18.632;2022-12-29T09:10:44;99906.13;;;7.39;100.00
36380;BME280;22411;53.016;18.632;2022-12-29T09:13:14;99917.16;;;7.41;100.00
36380;BME280;22411;53.016;18.632;2022-12-29T09:15:42;99918.91;;;7.41;100.00
36380;BME280;22411;53.016;18.632;2022-12-29T09:18:09;99904.28;;;7.41;100.00
36380;BME280;22411;53.016;18.632;2022-12-29T09:20:35;99905.84;;;7.44;100.00
36380;BME280;22411;53.016;18.632;2022-12-29T09:23:02;99901.41;;;7.46;100.00
36380;BME280;22411;53.016;18.632;2022-12-29T09:25:30;99900.81;;;7.55;100.00
36380;BME280;22411;53.016;18.632;2022-12-29T09:27:56;99895.47;;;7.71;100.00
36380;BME280;22411;53.016;18.632;2022-12-29T09:30:31;99903.91;;;7.73;100.00
36380;BME280;22411;53.016;18.632;2022-12-29T09:32:56;99906.50;;;7.73;100.00
36380;BME280;22411;53.016;18.632;2022-12-29T09:35:37;99893.06;;;7.68;100.00
36380;BME280;22411;53.016;18.632;2022-12-29T09:38:22;99893.28;;;7.65;100.00
36380;BME280;22411;53.016;18.632;2022-12-29T09:41:39;99881.59;;;7.59;100.00
36380;BME280;22411;53.016;18.632;2022-12-29T09:44:20;99889.56;;;7.56;100.00
36380;BME280;22411;53.016;18.632;2022-12-29T09:46:50;99894.59;;;7.57;100.00
36380;BME280;22411;53.016;18.632;2022-12-29T09:49:44;99892.78;;;7.59;100.00
36380;BME280;22411;53.016;18.632;2022-12-29T09:52:25;99895.34;;;7.59;100.00
36380;BME280;22411;53.016;18.632;2022-12-29T09:55:14;99892.56;;;7.63;100.00
36380;BME280;22411;53.016;18.632;2022-12-29T09:57:57;99890.19;;;7.59;100.00
36380;BME280;22411;53.016;18.632;2022-12-29T10:00:36;99893.78;;;7.57;100.00
36380;BME280;22411;53.016;18.632;2022-12-29T10:03:20;99890.28;;;7.58;100.00
36380;BME280;22411;53.016;18.632;2022-12-29T10:19:34;99872.03;;;7.61;100.00
36380;BME280;22411;53.016;18.632;2022-12-29T10:22:21;99871.41;;;7.57;100.00
36380;BME280;22411;53.016;18.632;2022-12-29T10:24:52;99878.31;;;7.57;100.00
36380;BME280;22411;53.016;18.632;2022-12-29T10:27:20;99867.88;;;7.58;100.00
36380;BME280;22411;53.016;18.632;2022-12-29T10:29:55;99867.88;;;7.58;100.00
36380;BME280;22411;53.016;18.632;2022-12-29T10:32:34;99868.53;;;7.62;100.00
36380;BME280;22411;53.016;18.632;2022-12-29T10:35:26;99860.78;;;7.62;100.00
36380;BME280;22411;53.016;18.632;2022-12-29T10:38:30;99867.09;;;7.71;100.00
36380;BME280;22411;53.016;18.632;2022-12-29T10:44:15;99859.97;;;7.74;100.00
36380;BME280;22411;53.016;18.632;2022-12-29T10:46:43;99846.88;;;7.77;100.00
36380;BME280;22411;53.016;18.632;2022-12-29T10:49:16;99857.38;;;7.74;100.00
36380;BME280;22411;53.016;18.632;2022-12-29T10:51:46;99840.66;;;7.80;100.00
36380;BME280;22411;53.016;18.632;2022-12-29T10:57:37;99848.91;;;7.85;100.00
36380;BME280;22411;53.016;18.632;2022-12-29T11:08:21;99852.25;;;7.87;100.00
36380;BME280;22411;53.016;18.632;2022-12-29T11:10:57;99853.88;;;7.88;100.00
36380;BME280;22411;53.016;18.632;2022-12-29T11:13:27;99841.63;;;7.92;100.00
36380;BME280;22411;53.016;18.632;2022-12-29T11:15:53;99840.44;;;7.96;100.00
36380;BME280;22411;53.016;18.632;2022-12-29T11:18:36;99852.22;;;8.00;100.00
36380;BME280;22411;53.016;18.632;2022-12-29T11:21:26;99845.94;;;8.04;100.00
36380;BME280;22411;53.016;18.632;2022-12-29T11:24:04;99839.72;;;8.06;100.00
36380;BME280;22411;53.016;18.632;2022-12-29T11:26:32;99828.88;;;8.14;100.00
36380;BME280;22411;53.016;18.632;2022-12-29T11:31:47;99833.22;;;8.39;100.00
36380;BME280;22411;53.016;18.632;2022-12-29T11:34:31;99826.78;;;8.45;100.00
36380;BME280;22411;53.016;18.632;2022-12-29T11:37:02;99820.97;;;8.78;100.00
36380;BME280;22411;53.016;18.632;2022-12-29T11:40:03;99830.47;;;10.16;100.00
36380;BME280;22411;53.016;18.632;2022-12-29T11:42:40;99829.53;;;9.95;100.00
36380;BME280;22411;53.016;18.632;2022-12-29T11:45:18;99824.19;;;9.52;100.00
36380;BME280;22411;53.016;18.632;2022-12-29T11:47:51;99815.94;;;9.47;100.00
36380;BME280;22411;53.016;18.632;2022-12-29T11:50:28;99816.84;;;9.81;100.00
36380;BME280;22411;53.016;18.632;2022-12-29T11:56:01;99822.56;;;9.73;100.00
36380;BME280;22411;53.016;18.632;2022-12-29T11:58:35;99809.75;;;9.72;100.00
36380;BME280;22411;53.016;18.632;2022-12-29T12:01:13;99816.44;;;9.52;100.00
36380;BME280;22411;53.016;18.632;2022-12-29T12:04:14;99804.91;;;9.45;100.00
36380;BME280;22411;53.016;18.632;2022-12-29T12:09:41;99794.94;;;9.74;100.00
36380;BME280;22411;53.016;18.632;2022-12-29T12:12:23;99795.28;;;9.80;100.00
36380;BME280;22411;53.016;18.632;2022-12-29T12:14:55;99805.06;;;9.88;100.00
36380;BME280;22411;53.016;18.632;2022-12-29T12:17:40;99793.84;;;10.43;100.00
36380;BME280;22411;53.016;18.632;2022-12-29T12:23:12;99783.50;;;10.32;100.00
36380;BME280;22411;53.016;18.632;2022-12-29T12:25:57;99784.81;;;10.27;100.00
36380;BME280;22411;53.016;18.632;2022-12-29T12:30:55;99799.44;;;11.03;100.00
36380;BME280;22411;53.016;18.632;2022-12-29T12:33:41;99786.31;;;12.19;100.00
36380;BME280;22411;53.016;18.632;2022-12-29T12:36:28;99799.41;;;12.87;100.00
36380;BME280;22411;53.016;18.632;2022-12-29T12:39:10;99812.53;;;13.33;100.00
36380;BME280;22411;53.016;18.632;2022-12-29T12:44:53;99790.63;;;12.78;100.00
36380;BME280;22411;53.016;18.632;2022-12-29T12:47:46;99797.66;;;12.27;100.00
36380;BME280;22411;53.016;18.632;2022-12-29T12:59:38;99802.84;;;11.87;100.00
36380;BME280;22411;53.016;18.632;2022-12-29T13:10:45;99798.31;;;13.18;100.00
36380;BME280;22411;53.016;18.632;2022-12-29T13:16:27;99804.56;;;13.54;100.00
36380;BME280;22411;53.016;18.632;2022-12-29T13:26:50;99795.13;;;12.56;100.00
36380;BME280;22411;53.016;18.632;2022-12-29T13:35:01;99792.47;;;11.87;100.00
36380;BME280;22411;53.016;18.632;2022-12-29T13:37:32;99797.25;;;11.61;100.00
36380;BME280;22411;53.016;18.632;2022-12-29T13:40:10;99802.13;;;11.34;100.00
36380;BME280;22411;53.016;18.632;2022-12-29T13:42:48;99803.84;;;11.23;100.00
36380;BME280;22411;53.016;18.632;2022-12-29T13:45:20;99801.63;;;11.19;100.00
36380;BME280;22411;53.016;18.632;2022-12-29T13:48:10;99805.06;;;10.87;100.00
36380;BME280;22411;53.016;18.632;2022-12-29T13:50:53;99809.88;;;10.81;100.00
36380;BME280;22411;53.016;18.632;2022-12-29T13:53:49;99810.47;;;10.84;100.00
36380;BME280;22411;53.016;18.632;2022-12-29T13:56:54;99817.34;;;10.74;100.00
36380;BME280;22411;53.016;18.632;2022-12-29T14:08:01;99816.94;;;10.02;100.00
36380;BME280;22411;53.016;18.632;2022-12-29T14:10:38;99819.78;;;9.87;100.00
36380;BME280;22411;53.016;18.632;2022-12-29T14:13:18;99818.94;;;9.76;100.00
36380;BME280;22411;53.016;18.632;2022-12-29T14:15:56;99816.56;;;9.61;100.00
36380;BME280;22411;53.016;18.632;2022-12-29T14:18:29;99819.00;;;9.52;100.00
36380;BME280;22411;53.016;18.632;2022-12-29T14:23:47;99830.97;;;9.41;100.00
36380;BME280;22411;53.016;18.632;2022-12-29T14:29:16;99825.28;;;9.25;100.00
36380;BME280;22411;53.016;18.632;2022-12-29T14:31:45;99822.44;;;9.17;100.00
36380;BME280;22411;53.016;18.632;2022-12-29T14:37:02;99828.38;;;9.06;100.00
36380;BME280;22411;53.016;18.632;2022-12-29T14:39:45;99829.28;;;8.94;100.00
36380;BME280;22411;53.016;18.632;2022-12-29T14:42:19;99819.38;;;8.88;100.00
36380;BME280;22411;53.016;18.632;2022-12-29T14:44:52;99820.09;;;8.90;100.00
36380;BME280;22411;53.016;18.632;2022-12-29T14:47:34;99820.78;;;8.81;100.00
36380;BME280;22411;53.016;18.632;2022-12-29T14:53:01;99821.94;;;8.77;100.00
36380;BME280;22411;53.016;18.632;2022-12-29T14:55:48;99824.72;;;8.74;100.00
36380;BME280;22411;53.016;18.632;2022-12-29T14:58:37;99814.72;;;8.69;100.00
36380;BME280;22411;53.016;18.632;2022-12-29T15:03:46;99814.66;;;8.58;100.00
36380;BME280;22411;53.016;18.632;2022-12-29T15:06:18;99818.28;;;8.55;100.00
36380;BME280;22411;53.016;18.632;2022-12-29T15:14:38;99804.25;;;8.47;100.00
36380;BME280;22411;53.016;18.632;2022-12-29T15:17:30;99814.81;;;8.44;100.00
36380;BME280;22411;53.016;18.632;2022-12-29T15:23:12;99804.28;;;8.34;100.00
36380;BME280;22411;53.016;18.632;2022-12-29T15:26:14;99796.72;;;8.31;100.00
36380;BME280;22411;53.016;18.632;2022-12-29T15:28:52;99802.00;;;8.29;100.00
36380;BME280;22411;53.016;18.632;2022-12-29T15:31:24;99808.69;;;8.32;100.00
36380;BME280;22411;53.016;18.632;2022-12-29T15:33:53;99798.50;;;8.30;100.00
36380;BME280;22411;53.016;18.632;2022-12-29T15:36:25;99805.53;;;8.28;100.00